Time;durP1;ratioP1;P1;durP2;ratioP2;P2;SDS_P1;SDS_P2;PMS_P1;PMS_P2;Temp;Humidity;BMP_temperature;BMP_pressure;BME280_temperature;BME280_humidity;BME280_pressure;Samples;Min_cycle;Max_cycle;Signal;HPM_P1;HPM_P2
2021/11/28 00:00:24;;;;;;;21.97;19.87;;;1.00;99.90;;;;;;6244737;23;20446;-77
2021/11/28 00:02:50;;;;;;;21.07;19.27;;;1.00;99.90;;;;;;6244751;23;20404;-77
2021/11/28 00:05:20;;;;;;;21.50;19.57;;;1.00;99.90;;;;;;6217820;23;20464;-77
2021/11/28 00:08:05;;;;;;;22.77;20.63;;;1.10;99.90;;;;;;6244356;23;20790;-77
2021/11/28 00:13:48;;;;;;;22.20;20.20;;;1.00;99.90;;;;;;6122042;23;20768;-76
2021/11/28 00:16:16;;;;;;;22.43;20.13;;;1.00;99.90;;;;;;6230490;23;20448;-77
2021/11/28 00:18:43;;;;;;;22.77;20.67;;;1.00;99.90;;;;;;6244323;23;20787;-77
2021/11/28 00:21:10;;;;;;;21.77;19.67;;;1.10;99.90;;;;;;6244558;23;20386;-77
2021/11/28 00:23:37;;;;;;;23.10;20.90;;;1.10;99.90;;;;;;6217593;23;20836;-77
2021/11/28 00:26:06;;;;;;;23.10;20.90;;;1.10;99.90;;;;;;6217412;23;20414;-77
2021/11/28 00:28:32;;;;;;;22.27;20.13;;;1.10;99.90;;;;;;6217456;23;20904;-77
2021/11/28 00:31:00;;;;;;;21.57;19.47;;;1.10;99.90;;;;;;6244427;23;20775;-77
2021/11/28 00:33:26;;;;;;;21.10;19.20;;;1.20;99.90;;;;;;6217396;23;20430;-77
2021/11/28 00:35:53;;;;;;;20.77;19.07;;;1.20;99.90;;;;;;6244231;23;20403;-77
2021/11/28 00:38:22;;;;;;;20.93;19.13;;;1.20;99.90;;;;;;6217349;23;20752;-77
2021/11/28 00:40:49;;;;;;;20.73;18.93;;;1.30;99.90;;;;;;6217267;23;20421;-77
2021/11/28 00:43:19;;;;;;;19.70;17.90;;;1.30;99.90;;;;;;6244274;23;20468;-77
2021/11/28 00:45:46;;;;;;;20.63;18.73;;;1.30;99.90;;;;;;6244422;23;20398;-77
2021/11/28 00:48:13;;;;;;;19.83;17.97;;;1.30;99.90;;;;;;6217099;23;20512;-77
2021/11/28 00:50:44;;;;;;;21.03;18.97;;;1.30;99.90;;;;;;6217416;23;20884;-77
2021/11/28 00:53:14;;;;;;;20.63;18.83;;;1.30;99.90;;;;;;6244018;23;20402;-77
2021/11/28 00:55:41;;;;;;;20.30;18.50;;;1.30;99.90;;;;;;6242617;23;20406;-77
2021/11/28 00:58:08;;;;;;;21.63;19.70;;;1.40;99.90;;;;;;6216328;23;20453;-78
2021/11/28 01:00:39;;;;;;;19.63;17.90;;;1.30;99.90;;;;;;6244081;23;20701;-77
2021/11/28 01:03:07;;;;;;;20.27;18.10;;;1.30;99.90;;;;;;6217232;23;20468;-77
2021/11/28 01:05:36;;;;;;;19.57;17.90;;;1.30;99.90;;;;;;6217287;23;20441;-77
2021/11/28 01:08:03;;;;;;;19.80;18.00;;;1.30;99.90;;;;;;6216895;23;20419;-77
2021/11/28 01:10:30;;;;;;;20.20;18.13;;;1.40;99.90;;;;;;6244103;23;20474;-77
2021/11/28 01:12:56;;;;;;;18.77;17.23;;;1.30;99.90;;;;;;6217255;23;20434;-76
2021/11/28 01:15:24;;;;;;;18.70;17.30;;;1.30;99.90;;;;;;6217172;23;20442;-77
2021/11/28 01:17:52;;;;;;;17.67;16.37;;;1.30;99.90;;;;;;6216984;23;20419;-77
2021/11/28 01:20:19;;;;;;;17.30;15.93;;;1.40;99.90;;;;;;6243849;23;20397;-76
2021/11/28 01:22:46;;;;;;;17.70;16.30;;;1.40;99.90;;;;;;6217036;23;20439;-77
2021/11/28 01:25:16;;;;;;;18.47;16.83;;;1.40;99.90;;;;;;6217140;23;20465;-77
2021/11/28 01:27:46;;;;;;;18.60;17.13;;;1.40;99.90;;;;;;6216936;23;20422;-77
2021/11/28 01:30:14;;;;;;;19.40;17.47;;;1.50;99.90;;;;;;6217288;23;20415;-77
2021/11/28 01:32:42;;;;;;;18.43;16.70;;;1.40;99.90;;;;;;6244024;23;20473;-77
2021/11/28 01:35:14;;;;;;;17.90;16.43;;;1.40;99.90;;;;;;6216969;23;20413;-77
2021/11/28 01:37:44;;;;;;;18.23;16.53;;;1.40;99.90;;;;;;6241926;23;20425;-77
2021/11/28 01:40:13;;;;;;;18.13;16.63;;;1.40;99.90;;;;;;6217233;23;20432;-77
2021/11/28 01:42:43;;;;;;;18.00;16.60;;;1.40;99.90;;;;;;6217166;23;20437;-77
2021/11/28 01:45:14;;;;;;;18.87;17.33;;;1.40;99.90;;;;;;6217167;23;20827;-77
2021/11/28 01:47:41;;;;;;;18.13;16.77;;;1.40;99.90;;;;;;6216681;23;20403;-77
2021/11/28 01:50:10;;;;;;;18.20;16.53;;;1.40;99.90;;;;;;6216992;23;20925;-77
2021/11/28 01:52:37;;;;;;;18.23;16.53;;;1.40;99.90;;;;;;6217094;23;20442;-77
2021/11/28 01:55:10;;;;;;;17.70;16.03;;;1.40;99.90;;;;;;6217132;23;20409;-77
2021/11/28 01:57:37;;;;;;;17.43;16.03;;;1.40;99.90;;;;;;6242323;23;20432;-76
2021/11/28 02:00:07;;;;;;;17.83;16.43;;;1.40;99.90;;;;;;6216949;23;20418;-77
2021/11/28 02:02:45;;;;;;;17.17;15.97;;;1.50;99.90;;;;;;6243790;23;20403;-77
2021/11/28 02:05:20;;;;;;;16.90;15.57;;;1.50;99.90;;;;;;6217054;23;20468;-77
2021/11/28 02:07:49;;;;;;;18.47;16.87;;;1.50;99.90;;;;;;6216622;23;20413;-77
2021/11/28 02:10:17;;;;;;;17.97;16.37;;;1.50;99.90;;;;;;6217026;23;20411;-77
2021/11/28 02:12:45;;;;;;;17.97;16.33;;;1.50;99.90;;;;;;6217197;23;20992;-77
2021/11/28 02:15:12;;;;;;;18.90;17.10;;;1.50;99.90;;;;;;6245667;23;20394;-77
2021/11/28 02:17:45;;;;;;;18.40;16.80;;;1.50;99.90;;;;;;6218525;23;20406;-77
2021/11/28 02:20:14;;;;;;;18.17;16.40;;;1.60;99.90;;;;;;6218848;23;20448;-77
2021/11/28 02:22:43;;;;;;;16.83;15.53;;;1.50;99.90;;;;;;6245894;23;20457;-77
2021/11/28 02:25:12;;;;;;;17.37;16.03;;;1.50;99.90;;;;;;6218740;23;20465;-77
2021/11/28 02:27:39;;;;;;;17.17;15.80;;;1.50;99.90;;;;;;6243784;23;20419;-77
2021/11/28 02:30:09;;;;;;;17.90;16.20;;;1.50;99.90;;;;;;6245550;23;20399;-77
2021/11/28 02:32:39;;;;;;;17.40;15.90;;;1.40;99.90;;;;;;6243993;23;20940;-77
2021/11/28 02:35:06;;;;;;;18.20;16.57;;;1.40;99.90;;;;;;6218863;23;20420;-77
2021/11/28 02:37:33;;;;;;;17.70;15.93;;;1.40;99.90;;;;;;6246416;23;20611;-77
2021/11/28 02:40:07;;;;;;;17.47;16.00;;;1.40;99.90;;;;;;6243427;23;20417;-77
2021/11/28 02:42:34;;;;;;;18.03;16.63;;;1.50;99.90;;;;;;6218509;23;20440;-77
2021/11/28 02:45:01;;;;;;;17.47;16.07;;;1.50;99.90;;;;;;6218928;23;20460;-77
2021/11/28 02:47:28;;;;;;;17.23;15.83;;;1.50;99.90;;;;;;6218384;23;20492;-77
2021/11/28 02:49:55;;;;;;;17.73;16.20;;;1.50;99.90;;;;;;6218574;23;20414;-77
2021/11/28 02:52:22;;;;;;;17.40;16.03;;;1.50;99.90;;;;;;6243837;23;20498;-77
2021/11/28 02:54:49;;;;;;;17.03;15.63;;;1.50;99.90;;;;;;6243883;23;20409;-77
2021/11/28 02:57:17;;;;;;;17.67;16.17;;;1.50;99.90;;;;;;6242746;23;20475;-77
2021/11/28 02:59:44;;;;;;;18.33;16.43;;;1.50;99.90;;;;;;6218375;23;20436;-77
2021/11/28 03:02:11;;;;;;;17.03;15.67;;;1.50;99.90;;;;;;6218286;23;20455;-77
2021/11/28 03:04:49;;;;;;;17.30;16.00;;;1.60;99.90;;;;;;6218554;23;20457;-77
2021/11/28 03:07:16;;;;;;;18.27;16.53;;;1.50;99.90;;;;;;6218230;23;20469;-77
2021/11/28 03:09:43;;;;;;;18.07;16.47;;;1.60;99.90;;;;;;6218389;23;20415;-77
2021/11/28 03:12:11;;;;;;;17.67;16.20;;;1.60;99.90;;;;;;6218296;23;20435;-77
2021/11/28 03:14:40;;;;;;;17.17;15.83;;;1.60;99.90;;;;;;6245269;23;20389;-78
2021/11/28 03:17:08;;;;;;;17.27;15.90;;;1.60;99.90;;;;;;6243377;23;20412;-77
2021/11/28 03:19:35;;;;;;;16.90;15.63;;;1.60;99.90;;;;;;6243247;23;20485;-77
2021/11/28 03:22:03;;;;;;;16.93;15.53;;;1.60;99.90;;;;;;6244960;23;20456;-77
2021/11/28 03:24:30;;;;;;;16.47;15.17;;;1.60;99.90;;;;;;6217993;23;20951;-77
2021/11/28 03:26:57;;;;;;;17.20;15.73;;;1.60;99.90;;;;;;6218153;23;20906;-77
2021/11/28 03:29:28;;;;;;;16.63;15.43;;;1.70;99.90;;;;;;6242844;23;20418;-77
2021/11/28 03:32:09;;;;;;;16.70;15.50;;;1.60;99.90;;;;;;6245153;23;20468;-77
2021/11/28 03:34:56;;;;;;;16.30;15.20;;;1.60;99.90;;;;;;6218565;23;20801;-77
2021/11/28 03:37:27;;;;;;;16.43;15.23;;;1.50;99.90;;;;;;6218035;23;20420;-77
2021/11/28 03:39:55;;;;;;;16.50;15.30;;;1.50;99.90;;;;;;6218274;23;20419;-77
2021/11/28 03:42:32;;;;;;;17.07;15.60;;;1.50;99.90;;;;;;6243326;23;20426;-77
2021/11/28 03:44:59;;;;;;;18.03;16.33;;;1.50;99.90;;;;;;6244901;23;20433;-77
2021/11/28 03:47:28;;;;;;;17.63;16.13;;;1.40;99.90;;;;;;6217788;23;20905;-77
2021/11/28 03:49:59;;;;;;;17.27;15.87;;;1.40;99.90;;;;;;6218056;23;20394;-77
2021/11/28 03:52:26;;;;;;;16.97;15.67;;;1.40;99.90;;;;;;6243230;23;20439;-77
2021/11/28 03:54:53;;;;;;;18.27;16.83;;;1.40;99.90;;;;;;6217866;23;20905;-77
2021/11/28 03:57:22;;;;;;;16.43;15.13;;;1.40;99.90;;;;;;6235566;23;20419;-77
2021/11/28 03:59:50;;;;;;;16.83;15.43;;;1.40;99.90;;;;;;6216191;23;20442;-77
2021/11/28 04:02:18;;;;;;;16.63;15.33;;;1.40;99.90;;;;;;6244365;23;20402;-77
2021/11/28 04:04:47;;;;;;;16.57;15.37;;;1.40;99.90;;;;;;6212878;23;20455;-77
2021/11/28 04:07:21;;;;;;;16.57;15.17;;;1.40;99.90;;;;;;6236210;23;20405;-77
2021/11/28 04:09:48;;;;;;;17.03;15.73;;;1.40;99.90;;;;;;6217235;23;20450;-77
2021/11/28 04:12:16;;;;;;;17.57;16.23;;;1.40;99.90;;;;;;6242968;23;20455;-77
2021/11/28 04:14:44;;;;;;;17.43;16.03;;;1.40;99.90;;;;;;6217645;23;20420;-77
2021/11/28 04:17:13;;;;;;;16.67;15.37;;;1.40;99.90;;;;;;6217356;23;20421;-77
2021/11/28 04:19:46;;;;;;;18.03;16.50;;;1.40;99.90;;;;;;6217315;23;20477;-77
2021/11/28 04:22:14;;;;;;;16.80;15.60;;;1.40;99.90;;;;;;6217460;23;20429;-78
2021/11/28 04:24:42;;;;;;;16.60;15.30;;;1.40;99.90;;;;;;6242539;23;20528;-77
2021/11/28 04:27:09;;;;;;;16.93;15.70;;;1.50;99.90;;;;;;6217060;23;20405;-77
2021/11/28 04:29:36;;;;;;;17.30;15.90;;;1.50;99.90;;;;;;6217378;23;20468;-77
2021/11/28 04:32:04;;;;;;;16.80;15.50;;;1.50;99.90;;;;;;6217164;23;20513;-77
2021/11/28 04:34:32;;;;;;;16.73;15.43;;;1.50;99.90;;;;;;6217582;23;20415;-77
2021/11/28 04:37:01;;;;;;;17.30;15.73;;;1.40;99.90;;;;;;6242189;23;20477;-77
2021/11/28 04:39:28;;;;;;;17.40;15.90;;;1.40;99.90;;;;;;6217341;23;20464;-77
2021/11/28 04:41:57;;;;;;;16.73;15.57;;;1.50;99.90;;;;;;6217471;23;20469;-76
2021/11/28 04:44:26;;;;;;;17.30;15.77;;;1.50;99.90;;;;;;6248743;23;20460;-77
2021/11/28 04:46:53;;;;;;;16.27;15.07;;;1.50;99.90;;;;;;6246314;23;20406;-76
2021/11/28 04:49:20;;;;;;;15.90;14.70;;;1.60;99.90;;;;;;6217364;23;20885;-77
2021/11/28 04:51:46;;;;;;;16.37;15.07;;;1.60;99.90;;;;;;6241712;23;20415;-76
2021/11/28 04:54:15;;;;;;;16.00;14.80;;;1.60;99.90;;;;;;6216856;23;20807;-76
2021/11/28 04:56:44;;;;;;;15.80;14.50;;;1.60;99.90;;;;;;6216920;23;20433;-76
2021/11/28 04:59:12;;;;;;;15.70;14.30;;;1.50;99.90;;;;;;6241917;23;20426;-76
2021/11/28 05:01:43;;;;;;;15.10;14.03;;;1.50;99.90;;;;;;6242160;23;20400;-77
2021/11/28 05:04:18;;;;;;;16.13;14.93;;;1.50;99.90;;;;;;6217095;23;20401;-76
2021/11/28 05:06:48;;;;;;;16.10;14.80;;;1.50;99.90;;;;;;6244094;23;20404;-76
2021/11/28 05:09:22;;;;;;;15.87;14.60;;;1.40;99.90;;;;;;6217416;23;20788;-77
2021/11/28 05:11:49;;;;;;;16.47;15.07;;;1.40;99.90;;;;;;6216423;23;20464;-77
2021/11/28 05:14:16;;;;;;;16.17;14.97;;;1.40;99.90;;;;;;6216927;23;20419;-76
2021/11/28 05:16:44;;;;;;;15.90;14.70;;;1.40;99.90;;;;;;6216854;23;20445;-77
2021/11/28 05:19:16;;;;;;;16.47;15.17;;;1.40;99.90;;;;;;6214511;23;20468;-77
2021/11/28 05:22:02;;;;;;;16.37;15.07;;;1.40;99.90;;;;;;6244063;23;20423;-76
2021/11/28 05:24:37;;;;;;;15.63;14.50;;;1.40;99.90;;;;;;6217458;23;20478;-77
2021/11/28 05:27:04;;;;;;;16.80;15.30;;;1.50;99.90;;;;;;6217179;23;20421;-77
2021/11/28 05:29:34;;;;;;;16.07;14.73;;;1.50;99.90;;;;;;6216531;23;20416;-77
2021/11/28 05:32:01;;;;;;;15.57;14.33;;;1.60;99.90;;;;;;6216645;23;20418;-77
2021/11/28 05:34:48;;;;;;;15.83;14.53;;;1.60;99.90;;;;;;6242197;23;20434;-77
2021/11/28 05:37:23;;;;;;;16.17;14.73;;;1.60;99.90;;;;;;6243283;23;20406;-77
2021/11/28 05:40:02;;;;;;;16.27;15.07;;;1.50;99.90;;;;;;6216566;23;20431;-77
2021/11/28 05:42:30;;;;;;;16.07;14.97;;;1.60;99.90;;;;;;6217196;23;20429;-77
2021/11/28 05:45:01;;;;;;;15.77;14.50;;;1.50;99.90;;;;;;6216727;23;20445;-77
2021/11/28 05:47:54;;;;;;;15.97;14.77;;;1.60;99.90;;;;;;6244766;23;20430;-76
2021/11/28 05:50:35;;;;;;;16.00;14.80;;;1.50;99.90;;;;;;6219397;23;20413;-74
2021/11/28 05:53:02;;;;;;;15.67;14.47;;;1.60;99.90;;;;;;6219202;23;20431;-77
2021/11/28 05:55:30;;;;;;;15.90;14.60;;;1.50;99.90;;;;;;6219010;23;20418;-78
2021/11/28 05:57:58;;;;;;;15.43;14.33;;;1.60;99.90;;;;;;6219078;23;20413;-77
2021/11/28 06:00:26;;;;;;;15.77;14.57;;;1.70;99.90;;;;;;6219056;23;20424;-77
2021/11/28 06:02:53;;;;;;;15.90;14.60;;;1.70;99.90;;;;;;6245385;23;20497;-77
2021/11/28 06:05:47;;;;;;;15.57;14.47;;;1.70;99.90;;;;;;6187268;23;20481;-77
2021/11/28 06:08:29;;;;;;;15.80;14.40;;;1.70;99.90;;;;;;6245142;23;20386;-76
2021/11/28 06:11:01;;;;;;;15.53;14.30;;;1.80;99.90;;;;;;6218675;23;20829;-76
2021/11/28 06:13:28;;;;;;;15.53;14.43;;;1.80;99.90;;;;;;6243593;23;20457;-77
2021/11/28 06:16:24;;;;;;;15.10;14.10;;;1.80;99.90;;;;;;6226990;23;20577;-78
2021/11/28 06:19:11;;;;;;;15.37;14.17;;;1.80;99.90;;;;;;6186246;23;20538;-77
2021/11/28 06:21:57;;;;;;;16.63;15.07;;;1.80;99.90;;;;;;6247949;23;20397;-77
2021/11/28 06:24:32;;;;;;;16.03;14.70;;;1.80;99.90;;;;;;6220758;23;20501;-78
2021/11/28 06:27:10;;;;;;;15.80;14.70;;;1.80;99.90;;;;;;6220608;23;20463;-77
2021/11/28 06:29:38;;;;;;;16.00;14.77;;;1.80;99.90;;;;;;6217251;23;20438;-77
2021/11/28 06:32:06;;;;;;;15.93;14.67;;;1.70;99.90;;;;;;6215398;23;20441;-76
2021/11/28 06:35:06;;;;;;;16.23;14.80;;;1.60;99.90;;;;;;6242846;23;20414;-77
2021/11/28 06:37:51;;;;;;;16.57;15.30;;;1.60;99.90;;;;;;6244822;23;20456;-77
2021/11/28 06:40:53;;;;;;;15.97;14.83;;;1.60;99.90;;;;;;6245159;23;20418;-77
2021/11/28 06:43:21;;;;;;;15.97;14.83;;;1.60;99.90;;;;;;6245030;23;20472;-77
2021/11/28 06:45:50;;;;;;;16.70;15.43;;;1.60;99.90;;;;;;6218734;23;20739;-76
2021/11/28 06:48:17;;;;;;;16.27;15.07;;;1.60;99.90;;;;;;6218007;23;20429;-77
2021/11/28 06:51:07;;;;;;;17.00;15.70;;;1.60;99.90;;;;;;6218751;23;20507;-77
2021/11/28 06:53:36;;;;;;;17.10;15.80;;;1.70;99.90;;;;;;6243655;23;20429;-76
2021/11/28 06:56:41;;;;;;;16.40;15.10;;;1.70;99.90;;;;;;6244958;23;20405;-76
2021/11/28 06:59:09;;;;;;;16.00;14.90;;;1.70;99.90;;;;;;6217038;23;20423;-76
2021/11/28 07:01:43;;;;;;;15.67;14.57;;;1.70;99.90;;;;;;6218279;23;20416;-77
2021/11/28 07:04:49;;;;;;;16.40;15.13;;;1.70;99.90;;;;;;6093328;23;20583;-77
2021/11/28 07:07:33;;;;;;;15.67;14.67;;;1.70;99.90;;;;;;6093141;23;20416;-77
2021/11/28 07:10:06;;;;;;;16.03;14.83;;;1.70;99.90;;;;;;6186813;23;20435;-77
2021/11/28 07:12:33;;;;;;;15.07;14.07;;;1.70;99.90;;;;;;6244973;23;20808;-77
2021/11/28 07:15:01;;;;;;;16.27;14.97;;;1.60;99.90;;;;;;6220483;23;20417;-77
2021/11/28 07:17:28;;;;;;;16.00;14.80;;;1.60;99.90;;;;;;6218599;23;20409;-77
2021/11/28 07:19:59;;;;;;;15.83;14.73;;;1.60;99.90;;;;;;6217965;23;20431;-77
2021/11/28 07:22:46;;;;;;;15.70;14.50;;;1.60;99.90;;;;;;6218085;23;20843;-76
2021/11/28 07:25:13;;;;;;;15.43;14.30;;;1.60;99.90;;;;;;6217732;23;20774;-77
2021/11/28 07:27:44;;;;;;;16.53;15.23;;;1.60;99.90;;;;;;6217820;23;20894;-77
2021/11/28 07:30:12;;;;;;;16.10;14.70;;;1.60;99.90;;;;;;6217983;23;20421;-77
2021/11/28 07:32:42;;;;;;;15.77;14.57;;;1.70;99.90;;;;;;6243344;23;20431;-77
2021/11/28 07:35:24;;;;;;;17.40;16.00;;;1.70;99.90;;;;;;6244694;23;20768;-77
2021/11/28 07:38:05;;;;;;;16.90;15.37;;;1.70;99.90;;;;;;6218066;23;20491;-77
2021/11/28 07:40:32;;;;;;;16.10;14.80;;;1.70;99.90;;;;;;6217864;23;20423;-77
2021/11/28 07:43:16;;;;;;;16.60;15.30;;;1.70;99.90;;;;;;6217832;23;20925;-77
2021/11/28 07:46:13;;;;;;;16.50;15.30;;;1.70;99.90;;;;;;6247054;23;20842;-76
2021/11/28 07:49:09;;;;;;;16.33;15.13;;;1.80;99.90;;;;;;6211743;23;20496;-77
2021/11/28 07:51:36;;;;;;;16.23;14.93;;;1.80;99.90;;;;;;6243127;23;20414;-77
2021/11/28 07:54:06;;;;;;;16.90;15.57;;;1.90;99.90;;;;;;6217650;23;20821;-76
2021/11/28 07:56:33;;;;;;;16.67;15.47;;;1.90;99.90;;;;;;6217364;23;20411;-76
2021/11/28 07:59:19;;;;;;;16.70;15.47;;;2.00;99.90;;;;;;6244755;23;20444;-77
2021/11/28 08:01:50;;;;;;;16.20;15.00;;;2.00;99.90;;;;;;6217670;23;20764;-77
2021/11/28 08:04:35;;;;;;;15.40;14.23;;;2.10;99.90;;;;;;6244620;23;20427;-77
2021/11/28 08:07:21;;;;;;;16.13;14.93;;;2.20;99.90;;;;;;6244278;23;20424;-77
2021/11/28 08:10:12;;;;;;;17.27;15.87;;;2.20;99.90;;;;;;6224138;23;20415;-77
2021/11/28 08:12:39;;;;;;;17.23;15.83;;;2.20;99.90;;;;;;6244436;23;20411;-77
2021/11/28 08:15:09;;;;;;;15.67;14.40;;;2.30;99.90;;;;;;6217690;23;20471;-77
2021/11/28 08:17:38;;;;;;;17.20;15.70;;;2.40;99.90;;;;;;6217353;23;20421;-77
2021/11/28 08:20:06;;;;;;;17.30;15.87;;;2.40;99.90;;;;;;6244365;23;20473;-77
2021/11/28 08:22:33;;;;;;;17.87;16.47;;;2.50;99.90;;;;;;6244316;23;20413;-77
2021/11/28 08:25:00;;;;;;;17.73;16.27;;;2.50;99.90;;;;;;6244281;23;20695;-77
2021/11/28 08:27:27;;;;;;;18.73;17.00;;;2.50;99.90;;;;;;6216820;23;20438;-77
2021/11/28 08:29:56;;;;;;;18.63;17.00;;;2.60;99.90;;;;;;6217206;23;20467;-77
2021/11/28 08:32:45;;;;;;;19.30;17.80;;;2.50;99.90;;;;;;6244404;23;20490;-77
2021/11/28 08:35:47;;;;;;;18.23;16.73;;;2.70;99.90;;;;;;6243800;23;20463;-77
2021/11/28 08:38:15;;;;;;;18.53;17.03;;;2.70;99.90;;;;;;6218287;23;20416;-77
2021/11/28 08:40:43;;;;;;;18.63;16.97;;;2.70;99.90;;;;;;6217322;23;20478;-77
2021/11/28 08:43:09;;;;;;;19.50;17.80;;;2.70;99.90;;;;;;6217179;23;20431;-77
2021/11/28 08:45:37;;;;;;;19.20;17.50;;;2.70;99.90;;;;;;6244118;23;20425;-77
2021/11/28 08:48:06;;;;;;;18.97;17.27;;;2.80;99.90;;;;;;6243832;23;20937;-77
2021/11/28 08:50:33;;;;;;;18.77;17.13;;;2.80;99.90;;;;;;6244216;23;20397;-76
2021/11/28 08:53:00;;;;;;;18.80;17.20;;;2.80;99.90;;;;;;6216993;23;20435;-77
2021/11/28 08:55:27;;;;;;;18.47;16.83;;;2.90;99.90;;;;;;6243935;23;20459;-77
2021/11/28 08:57:54;;;;;;;18.47;16.93;;;2.90;99.90;;;;;;6216970;23;20178;-77
2021/11/28 09:00:21;;;;;;;18.43;16.93;;;3.00;99.90;;;;;;6217599;23;20225;-77
2021/11/28 09:02:49;;;;;;;18.07;16.67;;;3.10;99.90;;;;;;6244073;23;20191;-77
2021/11/28 09:05:19;;;;;;;17.40;16.00;;;3.10;99.90;;;;;;6244129;23;20166;-77
2021/11/28 09:07:47;;;;;;;17.43;15.93;;;3.20;99.90;;;;;;6243467;23;20186;-77
2021/11/28 09:10:16;;;;;;;17.30;15.90;;;3.30;99.90;;;;;;6244017;23;20698;-77
2021/11/28 09:12:44;;;;;;;17.27;15.87;;;3.40;99.90;;;;;;6243979;23;20500;-77
2021/11/28 09:15:11;;;;;;;17.90;16.40;;;3.40;99.90;;;;;;6217182;23;20229;-77
2021/11/28 09:17:42;;;;;;;17.33;15.90;;;3.40;99.90;;;;;;6216714;23;20701;-77
2021/11/28 09:20:10;;;;;;;16.33;14.93;;;3.50;99.90;;;;;;6243790;23;20385;-78
2021/11/28 09:25:25;;;;;;;16.43;15.13;;;3.40;99.90;;;;;;6244261;23;20182;-77
2021/11/28 09:27:54;;;;;;;15.50;14.20;;;3.40;99.90;;;;;;6244560;23;20210;-77
2021/11/28 09:30:23;;;;;;;15.67;14.47;;;3.40;99.90;;;;;;6216839;23;20277;-76
2021/11/28 09:32:51;;;;;;;16.43;14.90;;;3.50;99.90;;;;;;6217777;23;20194;-76
2021/11/28 09:35:18;;;;;;;18.13;14.40;;;3.60;99.90;;;;;;6216843;23;20266;-77
2021/11/28 09:37:46;;;;;;;16.30;15.00;;;3.60;99.90;;;;;;6214496;23;20633;-77
2021/11/28 09:40:14;;;;;;;16.90;15.53;;;3.70;99.90;;;;;;6216949;23;20456;-77
2021/11/28 09:42:52;;;;;;;17.43;15.87;;;3.70;99.90;;;;;;6216873;23;20604;-77
2021/11/28 09:45:20;;;;;;;15.80;14.40;;;3.70;99.90;;;;;;6216998;23;20167;-77
2021/11/28 09:47:48;;;;;;;15.30;14.10;;;3.80;99.90;;;;;;6215592;23;20233;-77
2021/11/28 09:50:16;;;;;;;15.33;14.00;;;3.90;99.90;;;;;;6241483;23;20228;-77
2021/11/28 09:52:43;;;;;;;14.57;13.40;;;3.90;99.90;;;;;;6242535;23;20190;-76
2021/11/28 09:55:13;;;;;;;13.77;12.77;;;3.90;99.90;;;;;;6244192;23;20162;-76
2021/11/28 09:57:41;;;;;;;13.87;12.83;;;4.00;99.90;;;;;;6217024;23;20496;-77
2021/11/28 10:00:12;;;;;;;13.37;12.37;;;4.10;99.90;;;;;;6243935;23;20217;-77
2021/11/28 10:02:39;;;;;;;12.90;12.00;;;4.10;99.90;;;;;;6216909;23;20214;-77
2021/11/28 10:05:09;;;;;;;13.53;12.43;;;4.30;99.90;;;;;;6243818;23;20163;-77
2021/11/28 10:07:39;;;;;;;13.77;12.67;;;4.30;99.90;;;;;;6216346;23;20195;-78
2021/11/28 10:10:07;;;;;;;14.47;13.47;;;4.30;99.90;;;;;;6244032;23;20170;-76
2021/11/28 10:12:39;;;;;;;14.80;13.60;;;4.40;99.90;;;;;;6243579;23;20191;-76
2021/11/28 10:15:08;;;;;;;14.70;13.40;;;4.40;99.90;;;;;;6216909;23;20174;-77
2021/11/28 10:17:36;;;;;;;14.90;13.70;;;4.40;99.90;;;;;;6216507;23;20221;-77
2021/11/28 10:20:06;;;;;;;15.57;14.40;;;4.40;99.90;;;;;;6243864;23;20189;-77
2021/11/28 10:22:34;;;;;;;15.50;14.13;;;4.50;99.90;;;;;;6243474;23;20237;-76
2021/11/28 10:25:04;;;;;;;14.97;13.77;;;4.50;99.90;;;;;;6243703;23;20171;-77
2021/11/28 10:27:36;;;;;;;13.63;12.60;;;4.60;99.90;;;;;;6216603;23;20215;-77
2021/11/28 10:30:04;;;;;;;13.70;12.70;;;4.60;99.90;;;;;;6217565;23;20222;-83
2021/11/28 10:32:31;;;;;;;13.60;12.30;;;4.60;99.90;;;;;;6217160;23;20225;-79
2021/11/28 10:34:58;;;;;;;13.10;12.13;;;4.60;99.90;;;;;;6245387;23;20565;-79
2021/11/28 10:37:25;;;;;;;12.20;11.40;;;4.60;99.90;;;;;;6248356;23;20224;-79
2021/11/28 10:39:54;;;;;;;12.13;11.33;;;4.60;99.90;;;;;;6221861;23;20423;-77
2021/11/28 10:42:23;;;;;;;12.20;11.30;;;4.60;99.90;;;;;;6220123;23;20317;-77
2021/11/28 10:45:07;;;;;;;12.80;11.93;;;4.60;99.90;;;;;;6247086;23;20626;-77
2021/11/28 10:47:40;;;;;;;13.23;12.20;;;4.60;99.90;;;;;;6218339;23;20186;-77
2021/11/28 10:50:16;;;;;;;13.40;12.50;;;4.50;99.90;;;;;;6246839;23;20205;-76
2021/11/28 10:52:45;;;;;;;13.40;12.40;;;4.50;99.90;;;;;;6247176;23;20186;-78
2021/11/28 10:55:15;;;;;;;13.13;12.03;;;4.40;99.90;;;;;;6220779;23;20178;-76
2021/11/28 10:57:43;;;;;;;13.60;12.47;;;4.40;99.90;;;;;;6219517;23;20174;-76
2021/11/28 11:00:13;;;;;;;13.83;12.70;;;4.40;99.90;;;;;;6219513;23;20174;-77
2021/11/28 11:02:42;;;;;;;13.83;12.83;;;4.30;99.90;;;;;;6246585;23;20277;-77
2021/11/28 11:05:11;;;;;;;14.37;13.27;;;4.30;99.90;;;;;;6245735;23;20190;-77
2021/11/28 11:07:44;;;;;;;13.70;12.60;;;4.30;99.90;;;;;;6245261;23;20642;-77
2021/11/28 11:10:22;;;;;;;14.63;13.43;;;4.40;99.90;;;;;;6246312;23;20232;-77
2021/11/28 11:12:50;;;;;;;15.27;14.07;;;4.40;99.90;;;;;;6246834;23;20212;-77
2021/11/28 11:15:40;;;;;;;14.00;13.00;;;4.40;99.90;;;;;;6246223;23;20198;-77
2021/11/28 11:18:10;;;;;;;14.67;13.50;;;4.40;99.90;;;;;;6240728;23;20171;-76
2021/11/28 11:20:39;;;;;;;13.40;12.40;;;4.50;99.90;;;;;;6218694;23;20179;-77
2021/11/28 11:23:35;;;;;;;13.73;12.63;;;4.50;99.90;;;;;;6246015;23;20195;-77
2021/11/28 11:26:20;;;;;;;13.90;12.77;;;4.60;99.90;;;;;;6220427;23;20181;-78
2021/11/28 11:29:10;;;;;;;13.63;12.57;;;4.70;99.90;;;;;;6246550;23;20155;-77
2021/11/28 11:31:41;;;;;;;14.13;12.93;;;4.70;99.90;;;;;;6246066;23;20165;-77
2021/11/28 11:34:25;;;;;;;14.53;13.33;;;4.80;99.90;;;;;;6245874;23;20155;-77
2021/11/28 11:36:56;;;;;;;14.30;13.30;;;4.80;99.90;;;;;;6246254;23;20277;-78
2021/11/28 11:39:24;;;;;;;14.23;13.13;;;4.90;99.90;;;;;;6222073;23;20167;-77
2021/11/28 11:41:52;;;;;;;15.10;14.07;;;4.90;99.90;;;;;;6248264;23;20181;-77
2021/11/28 11:44:19;;;;;;;13.60;12.80;;;4.90;99.90;;;;;;6220092;23;20583;-76
2021/11/28 11:46:48;;;;;;;17.00;13.83;;;4.90;99.90;;;;;;6218393;23;20190;-77
2021/11/28 11:49:15;;;;;;;13.83;12.83;;;4.90;99.90;;;;;;6245771;23;20213;-78
2021/11/28 11:51:42;;;;;;;13.53;12.63;;;4.80;99.90;;;;;;6246546;23;20221;-77
2021/11/28 11:54:18;;;;;;;13.23;12.40;;;4.80;99.90;;;;;;6246721;23;20171;-77
2021/11/28 11:56:47;;;;;;;12.83;12.03;;;4.70;99.90;;;;;;6247134;23;20151;-77
2021/11/28 11:59:24;;;;;;;13.43;12.53;;;4.60;99.90;;;;;;6247082;23;20167;-77
2021/11/28 12:02:02;;;;;;;12.93;12.10;;;4.60;99.90;;;;;;6246871;23;20151;-76
2021/11/28 12:04:39;;;;;;;12.97;12.07;;;4.60;99.90;;;;;;6220489;23;20217;-77
2021/11/28 12:07:06;;;;;;;13.90;12.73;;;4.60;99.90;;;;;;6246185;23;20649;-76
2021/11/28 12:09:35;;;;;;;14.00;12.90;;;4.60;99.90;;;;;;6247037;23;20221;-77
2021/11/28 12:12:03;;;;;;;14.13;13.27;;;4.60;99.90;;;;;;6246231;23;20182;-77
2021/11/28 12:14:30;;;;;;;14.37;13.37;;;4.60;99.90;;;;;;6247296;23;20178;-77
2021/11/28 12:16:58;;;;;;;14.00;13.10;;;4.70;99.90;;;;;;6219235;23;20171;-77
2021/11/28 12:19:48;;;;;;;13.90;13.00;;;4.70;99.90;;;;;;6246849;23;20167;-77
2021/11/28 12:22:44;;;;;;;13.53;12.53;;;4.70;99.90;;;;;;6239423;23;20195;-77
2021/11/28 12:25:43;;;;;;;13.20;12.20;;;4.80;99.90;;;;;;6247283;23;20162;-77
2021/11/28 12:28:29;;;;;;;12.77;11.87;;;4.80;99.90;;;;;;6246226;23;20175;-78
2021/11/28 12:30:58;;;;;;;12.70;11.80;;;4.90;99.90;;;;;;6219410;23;20178;-77
2021/11/28 12:34:01;;;;;;;12.87;12.07;;;4.90;99.90;;;;;;6218978;23;20191;-77
2021/11/28 12:36:41;;;;;;;13.17;12.27;;;5.00;99.90;;;;;;6245843;23;20513;-77
2021/11/28 12:39:10;;;;;;;13.00;12.10;;;5.00;99.90;;;;;;6245849;23;20158;-77
2021/11/28 12:42:00;;;;;;;12.20;11.40;;;5.10;99.90;;;;;;6245036;23;20171;-77
2021/11/28 12:44:29;;;;;;;12.60;11.70;;;5.10;99.90;;;;;;6243621;23;20182;-77
2021/11/28 12:46:58;;;;;;;11.57;10.87;;;5.20;99.90;;;;;;6246029;23;20782;-77
2021/11/28 12:49:26;;;;;;;11.77;11.00;;;5.10;99.90;;;;;;6245693;23;20687;-77
2021/11/28 12:51:55;;;;;;;12.40;11.60;;;5.20;99.90;;;;;;6217931;23;20166;-77
2021/11/28 12:54:25;;;;;;;12.83;11.93;;;5.20;99.90;;;;;;6244417;23;20163;-78
2021/11/28 12:57:23;;;;;;;11.63;10.93;;;5.20;99.90;;;;;;6217047;23;20224;-77
2021/11/28 13:00:17;;;;;;;11.73;10.93;;;5.20;99.90;;;;;;6244763;23;20166;-77
2021/11/28 13:02:45;;;;;;;12.50;11.70;;;5.20;99.90;;;;;;6244044;23;20208;-77
2021/11/28 13:05:40;;;;;;;12.23;11.50;;;5.10;99.90;;;;;;6244538;23;20171;-77